Time;durP1;ratioP1;P1;durP2;ratioP2;P2;SDS_P1;SDS_P2;PMS_P1;PMS_P2;Temp;Humidity;BMP_temperature;BMP_pressure;BME280_temperature;BME280_humidity;BME280_pressure;Samples;Min_cycle;Max_cycle;Signal;HPM_P1;HPM_P2
2021/04/03 00:00:09;;;;;;;24.73;3.42;;;;;;;4.93;100.00;102616.56;3627807;31;20058;-62
2021/04/03 00:02:35;;;;;;;18.33;3.30;;;;;;;4.92;100.00;102618.38;3629401;31;20137;-64
2021/04/03 00:05:02;;;;;;;16.25;2.70;;;;;;;5.03;100.00;102612.66;3630045;31;20281;-61
2021/04/03 00:07:28;;;;;;;19.77;2.75;;;;;;;5.05;100.00;102610.78;3629783;32;20066;-62
2021/04/03 00:09:54;;;;;;;14.68;2.92;;;;;;;5.04;100.00;102601.91;3627513;31;20505;-63
2021/04/03 00:12:20;;;;;;;16.52;2.80;;;;;;;5.03;100.00;102609.97;3627980;32;20078;-62
2021/04/03 00:14:47;;;;;;;13.38;2.67;;;;;;;5.02;100.00;102608.22;3628930;31;20082;-62
2021/04/03 00:17:13;;;;;;;15.63;2.63;;;;;;;5.05;100.00;102608.09;3630578;31;20082;-62
2021/04/03 00:19:39;;;;;;;16.27;3.35;;;;;;;5.13;100.00;102607.84;3627711;31;20257;-61
2021/04/03 00:22:05;;;;;;;15.50;2.75;;;;;;;5.21;100.00;102603.97;3629810;31;20167;-63
2021/04/03 00:24:32;;;;;;;17.27;2.95;;;;;;;5.21;100.00;102597.72;3630096;32;20071;-62
2021/04/03 00:26:58;;;;;;;16.23;3.20;;;;;;;5.22;100.00;102597.66;3629922;31;20372;-62
2021/04/03 00:29:24;;;;;;;10.38;3.05;;;;;;;5.11;100.00;102594.56;3630462;31;20386;-62
2021/04/03 00:31:50;;;;;;;14.40;2.78;;;;;;;5.11;100.00;102607.91;3630871;32;20062;-64
2021/04/03 00:34:16;;;;;;;13.00;3.10;;;;;;;5.14;100.00;102597.09;3630760;32;20445;-62
2021/04/03 00:36:42;;;;;;;19.52;4.18;;;;;;;5.25;100.00;102599.34;3630090;39;20273;-62
2021/04/03 00:39:08;;;;;;;16.95;2.97;;;;;;;5.21;100.00;102603.97;3629939;31;20620;-63
2021/04/03 00:41:35;;;;;;;17.02;3.00;;;;;;;5.24;100.00;102603.84;3629414;31;20133;-62
2021/04/03 00:44:01;;;;;;;19.35;3.25;;;;;;;5.34;100.00;102608.81;3631549;31;20082;-63
2021/04/03 00:46:27;;;;;;;14.73;3.33;;;;;;;5.32;100.00;102602.69;3630977;31;20465;-62
2021/04/03 00:48:53;;;;;;;15.52;2.92;;;;;;;5.34;100.00;102600.81;3629671;31;20293;-62
2021/04/03 00:51:19;;;;;;;22.60;4.32;;;;;;;5.31;100.00;102598.25;3631083;31;20073;-63
2021/04/03 00:53:45;;;;;;;19.17;3.28;;;;;;;5.33;100.00;102604.41;3631515;31;20134;-63
2021/04/03 00:56:11;;;;;;;18.95;3.63;;;;;;;5.37;100.00;102596.19;3630875;31;20412;-64
2021/04/03 00:58:38;;;;;;;19.42;3.47;;;;;;;5.42;100.00;102606.72;3630735;31;20072;-63
2021/04/03 01:01:05;;;;;;;21.42;3.83;;;;;;;5.39;100.00;102602.38;3630146;31;20373;-62
2021/04/03 01:03:32;;;;;;;16.38;2.78;;;;;;;5.45;100.00;102590.59;3629185;31;20067;-61
2021/04/03 01:05:58;;;;;;;19.77;3.25;;;;;;;5.50;100.00;102593.94;3630390;31;20078;-62
2021/04/03 01:08:24;;;;;;;21.55;4.45;;;;;;;5.45;100.00;102590.59;3628298;31;20073;-62
2021/04/03 01:10:53;;;;;;;15.43;3.00;;;;;;;5.41;100.00;102586.28;3629758;31;20162;-61
2021/04/03 01:13:45;;;;;;;22.48;3.85;;;;;;;5.40;100.00;102595.22;3629611;31;20082;-62
2021/04/03 01:16:15;;;;;;;19.48;3.58;;;;;;;5.39;100.00;102582.81;3624353;31;20288;-64
2021/04/03 01:18:55;;;;;;;19.70;3.38;;;;;;;5.36;100.00;102585.59;3578990;34;20373;-63
2021/04/03 01:21:29;;;;;;;12.40;2.92;;;;;;;5.49;100.00;102581.53;3602101;32;20413;-62
2021/04/03 01:24:21;;;;;;;18.35;3.08;;;;;;;5.47;100.00;102572.69;3604294;32;20176;-62
2021/04/03 01:27:02;;;;;;;23.73;3.72;;;;;;;5.43;100.00;102571.97;3604321;32;20102;-63
2021/04/03 01:30:00;;;;;;;12.15;2.63;;;;;;;5.50;100.00;102588.59;3603887;32;20051;-63
2021/04/03 01:32:32;;;;;;;14.20;3.35;;;;;;;5.46;100.00;102581.63;3603893;32;20110;-62
2021/04/03 01:35:01;;;;;;;16.70;3.25;;;;;;;5.44;100.00;102583.50;3603956;32;20072;-62
2021/04/03 01:37:28;;;;;;;19.75;2.83;;;;;;;5.55;100.00;102581.28;3604406;32;20067;-62
2021/04/03 01:39:57;;;;;;;14.90;3.55;;;;;;;5.55;100.00;102586.63;3603705;32;20076;-62
2021/04/03 01:42:26;;;;;;;22.27;3.35;;;;;;;5.55;100.00;102585.72;3603528;32;20083;-62
2021/04/03 01:44:58;;;;;;;14.75;3.75;;;;;;;5.54;100.00;102584.88;3603789;32;20068;-64
2021/04/03 01:47:27;;;;;;;21.67;3.42;;;;;;;5.47;100.00;102588.72;3602657;32;20685;-61
2021/04/03 01:49:56;;;;;;;15.90;3.10;;;;;;;5.53;100.00;102588.47;3603246;32;20083;-62
2021/04/03 01:52:24;;;;;;;16.40;3.15;;;;;;;5.49;100.00;102592.22;3602653;32;20087;-63
2021/04/03 01:57:23;;;;;;;16.60;2.90;;;;;;;5.50;100.00;102577.91;3630960;32;20050;-65
2021/04/03 01:59:50;;;;;;;19.00;3.35;;;;;;;5.47;100.00;102591.38;3630459;31;20085;-63
2021/04/03 02:02:18;;;;;;;13.98;3.40;;;;;;;5.51;100.00;102582.34;3631110;31;20082;-62
2021/04/03 02:04:45;;;;;;;20.10;3.53;;;;;;;5.49;100.00;102602.91;3630591;31;20146;-62
2021/04/03 02:07:14;;;;;;;17.45;4.07;;;;;;;5.47;100.00;102594.06;3629318;31;20069;-61
2021/04/03 02:09:41;;;;;;;12.18;3.58;;;;;;;5.51;100.00;102590.34;3630725;31;20070;-63
2021/04/03 02:12:09;;;;;;;14.85;3.28;;;;;;;5.44;100.00;102589.69;3629409;31;20066;-62
2021/04/03 02:14:37;;;;;;;20.92;4.15;;;;;;;5.47;100.00;102587.84;3630661;31;20075;-62
2021/04/03 02:17:05;;;;;;;17.38;3.55;;;;;;;5.44;100.00;102591.50;3629843;31;20078;-63
2021/04/03 02:19:34;;;;;;;24.05;4.15;;;;;;;5.36;100.00;102585.59;3628396;31;20261;-62
2021/04/03 02:22:00;;;;;;;20.23;3.87;;;;;;;5.35;100.00;102598.06;3630125;32;20079;-62
2021/04/03 02:24:27;;;;;;;20.13;3.67;;;;;;;5.34;100.00;102601.66;3630597;31;20081;-64
2021/04/03 02:26:53;;;;;;;19.75;4.18;;;;;;;5.34;100.00;102599.00;3629529;31;20166;-62
2021/04/03 02:29:19;;;;;;;24.60;4.15;;;;;;;5.30;100.00;102601.84;3627401;31;20182;-62
2021/04/03 02:31:45;;;;;;;17.33;3.63;;;;;;;5.19;100.00;102597.78;3630045;31;20064;-62
2021/04/03 02:34:11;;;;;;;22.17;3.55;;;;;;;5.18;100.00;102600.53;3629353;39;20090;-63
2021/04/03 02:36:38;;;;;;;23.55;4.90;;;;;;;5.18;100.00;102593.41;3630780;31;20081;-62
2021/04/03 02:39:04;;;;;;;23.48;4.00;;;;;;;5.14;100.00;102597.09;3629088;32;20378;-62
2021/04/03 02:41:37;;;;;;;25.48;4.50;;;;;;;5.09;100.00;102594.63;3629783;31;20066;-63
2021/04/03 02:44:12;;;;;;;18.88;3.35;;;;;;;5.02;100.00;102605.56;3630152;31;20087;-62
2021/04/03 02:46:45;;;;;;;26.05;4.55;;;;;;;5.02;100.00;102608.22;3628576;32;20166;-61
2021/04/03 02:49:17;;;;;;;30.80;4.63;;;;;;;4.99;100.00;102608.34;3629509;31;20062;-62
2021/04/03 02:51:49;;;;;;;24.52;4.32;;;;;;;5.00;100.00;102604.75;3628569;31;20108;-62
2021/04/03 02:54:17;;;;;;;21.15;4.68;;;;;;;4.83;100.00;102611.59;3629319;32;20090;-61
2021/04/03 02:56:45;;;;;;;27.40;4.88;;;;;;;4.78;100.00;102605.53;3629287;31;20304;-62
2021/04/03 02:59:16;;;;;;;25.67;4.10;;;;;;;4.77;100.00;102594.91;3629100;39;20059;-63
2021/04/03 03:01:44;;;;;;;30.42;5.55;;;;;;;4.74;100.00;102603.91;3628616;39;20389;-62
2021/04/03 03:04:12;;;;;;;34.47;5.00;;;;;;;4.73;100.00;102596.84;3629741;31;20370;-62
2021/04/03 03:06:40;;;;;;;24.08;4.35;;;;;;;4.66;100.00;102600.66;3629792;31;20066;-63
2021/04/03 03:09:07;;;;;;;28.63;4.75;;;;;;;4.59;100.00;102586.66;3628990;32;20069;-62
2021/04/03 03:11:35;;;;;;;21.23;4.75;;;;;;;4.57;100.00;102592.03;3629482;31;20059;-62
2021/04/03 03:14:02;;;;;;;27.15;4.75;;;;;;;4.53;100.00;102603.75;3629473;31;20083;-61
2021/04/03 03:16:28;;;;;;;28.80;4.47;;;;;;;4.56;100.00;102598.31;3629798;31;20481;-62
2021/04/03 03:18:54;;;;;;;29.55;4.10;;;;;;;4.54;100.00;102604.63;3628536;31;20167;-61
2021/04/03 03:21:20;;;;;;;26.30;5.90;;;;;;;4.56;100.00;102610.75;3630193;32;20114;-62
2021/04/03 03:23:47;;;;;;;34.25;4.93;;;;;;;4.52;100.00;102615.34;3629825;31;20094;-62
2021/04/03 03:26:14;;;;;;;27.33;5.13;;;;;;;4.42;100.00;102608.59;3629173;32;20089;-62
2021/04/03 03:28:40;;;;;;;20.00;4.63;;;;;;;4.41;100.00;102604.19;3630587;31;20077;-62
2021/04/03 03:31:06;;;;;;;27.75;4.53;;;;;;;4.42;100.00;102608.59;3630451;31;20091;-63
2021/04/03 03:33:32;;;;;;;27.92;4.45;;;;;;;4.29;100.00;102609.94;3628472;31;20077;-63
2021/04/03 03:35:59;;;;;;;29.42;4.68;;;;;;;4.33;100.00;102604.44;3628859;31;20059;-62
2021/04/03 03:38:25;;;;;;;25.08;4.20;;;;;;;4.30;100.00;102601.00;3628599;31;20067;-62
2021/04/03 03:40:54;;;;;;;29.60;4.85;;;;;;;4.17;100.00;102604.09;3629996;31;20070;-62
2021/04/03 03:43:21;;;;;;;27.98;5.03;;;;;;;4.10;100.00;102602.56;3627855;31;20067;-64
2021/04/03 03:45:48;;;;;;;31.30;5.75;;;;;;;4.12;100.00;102608.72;3630083;31;20082;-63
2021/04/03 03:48:14;;;;;;;30.25;5.30;;;;;;;4.04;100.00;102603.63;3629033;31;20484;-64
2021/04/03 03:50:40;;;;;;;23.98;5.47;;;;;;;4.01;100.00;102605.53;3629245;32;20320;-62
2021/04/03 03:53:06;;;;;;;22.67;4.95;;;;;;;3.93;100.00;102610.22;3629279;31;20054;-63
2021/04/03 03:55:32;;;;;;;29.10;5.05;;;;;;;3.91;100.00;102612.94;3629992;31;20157;-61
2021/04/03 03:57:58;;;;;;;32.90;5.70;;;;;;;3.98;100.00;102621.63;3627911;39;20067;-62
2021/04/03 04:00:24;;;;;;;27.73;4.78;;;;;;;3.89;100.00;102619.22;3631452;31;20074;-63
2021/04/03 04:02:50;;;;;;;31.33;4.68;;;;;;;3.86;100.00;102613.09;3631904;32;20081;-62
2021/04/03 04:05:17;;;;;;;32.65;5.10;;;;;;;3.78;100.00;102625.78;3630936;31;20399;-63
2021/04/03 04:07:43;;;;;;;29.65;5.45;;;;;;;3.82;100.00;102623.91;3630249;32;20074;-62
2021/04/03 04:10:11;;;;;;;32.90;5.40;;;;;;;3.78;100.00;102616.91;3630186;31;20078;-62
2021/04/03 04:12:37;;;;;;;21.77;5.00;;;;;;;3.81;100.00;102623.03;3630868;31;20411;-62
2021/04/03 04:15:04;;;;;;;25.38;4.90;;;;;;;3.88;100.00;102618.38;3631729;31;20067;-62
2021/04/03 04:17:31;;;;;;;31.67;5.20;;;;;;;3.84;100.00;102622.03;3629892;31;20059;-62
2021/04/03 04:19:57;;;;;;;28.40;5.28;;;;;;;3.77;100.00;102615.16;3630813;31;20067;-62
2021/04/03 04:22:23;;;;;;;29.25;5.88;;;;;;;3.70;100.00;102630.47;3630277;31;20373;-64
2021/04/03 04:24:49;;;;;;;38.47;5.53;;;;;;;3.85;100.00;102640.63;3630829;32;20124;-62
2021/04/03 04:27:15;;;;;;;27.35;4.93;;;;;;;3.82;100.00;102634.56;3630845;31;20410;-61
2021/04/03 04:29:41;;;;;;;30.48;5.10;;;;;;;3.70;100.00;102627.81;3631560;31;20307;-61
2021/04/03 04:32:07;;;;;;;30.00;5.05;;;;;;;3.69;100.00;102631.41;3630905;31;20063;-64
2021/04/03 04:34:34;;;;;;;33.35;5.53;;;;;;;3.74;100.00;102636.56;3629775;32;20063;-62
2021/04/03 04:37:00;;;;;;;33.33;5.88;;;;;;;3.58;100.00;102647.72;3631646;31;20063;-61
2021/04/03 04:39:26;;;;;;;32.33;6.25;;;;;;;3.49;100.00;102640.88;3630128;31;20190;-63
2021/04/03 04:41:52;;;;;;;20.27;4.97;;;;;;;3.57;100.00;102648.63;3630915;31;20097;-62
2021/04/03 04:44:18;;;;;;;27.70;4.88;;;;;;;3.61;100.00;102654.75;3630719;31;20066;-63
2021/04/03 04:46:43;;;;;;;32.47;5.80;;;;;;;3.68;100.00;102649.16;3631161;31;20093;-62
2021/04/03 04:49:10;;;;;;;30.83;5.75;;;;;;;3.68;100.00;102646.50;3629256;31;20277;-62
2021/04/03 04:51:36;;;;;;;30.23;4.88;;;;;;;3.72;100.00;102657.06;3629348;32;20393;-62
2021/04/03 04:54:02;;;;;;;26.67;5.25;;;;;;;3.67;100.00;102657.22;3629377;31;20198;-62
2021/04/03 04:56:28;;;;;;;22.83;4.57;;;;;;;3.58;100.00;102653.03;3628170;31;20059;-63
2021/04/03 04:58:54;;;;;;;37.05;5.38;;;;;;;3.60;100.00;102659.19;3630282;39;20093;-61
2021/04/03 05:01:20;;;;;;;36.00;5.93;;;;;;;3.65;100.00;102661.69;3630497;39;20558;-62
2021/04/03 05:03:46;;;;;;;32.17;5.38;;;;;;;3.57;100.00;102655.75;3629696;32;20096;-61
2021/04/03 05:06:12;;;;;;;34.45;6.00;;;;;;;3.57;100.00;102659.28;3630595;31;20062;-62
2021/04/03 05:08:39;;;;;;;36.08;5.40;;;;;;;3.67;100.00;102663.41;3627219;39;20098;-62
2021/04/03 05:11:05;;;;;;;25.85;5.55;;;;;;;3.64;100.00;102668.81;3628713;31;20090;-62
2021/04/03 05:13:31;;;;;;;32.88;5.75;;;;;;;3.73;100.00;102673.00;3630079;39;20070;-61
2021/04/03 05:15:57;;;;;;;24.63;4.75;;;;;;;3.66;100.00;102682.09;3630190;31;20090;-63
2021/04/03 05:18:23;;;;;;;26.35;4.82;;;;;;;3.62;100.00;102678.66;3629607;31;20145;-61
2021/04/03 05:20:49;;;;;;;29.35;5.35;;;;;;;3.46;100.00;102690.66;3629952;32;20078;-62
2021/04/03 05:23:17;;;;;;;26.77;4.65;;;;;;;3.45;100.00;102696.91;3629363;31;20312;-62
2021/04/03 05:25:43;;;;;;;38.58;5.68;;;;;;;3.51;100.00;102694.94;3627149;32;20106;-63
2021/04/03 05:28:09;;;;;;;31.40;5.80;;;;;;;3.58;100.00;102694.75;3630050;31;20062;-61
2021/04/03 05:30:35;;;;;;;31.88;5.82;;;;;;;3.53;100.00;102702.88;3630382;39;20074;-62
2021/04/03 05:33:01;;;;;;;38.17;5.53;;;;;;;3.55;100.00;102701.06;3630320;31;20059;-62
2021/04/03 05:35:30;;;;;;;26.63;5.25;;;;;;;3.54;100.00;102707.28;3629779;32;20379;-63
2021/04/03 05:37:56;;;;;;;30.15;5.50;;;;;;;3.62;100.00;102704.41;3627759;39;20078;-63
2021/04/03 05:40:23;;;;;;;28.23;5.35;;;;;;;3.71;100.00;102714.78;3628697;31;20089;-62
2021/04/03 05:42:52;;;;;;;32.60;5.88;;;;;;;3.80;100.00;102717.16;3628610;31;20086;-61
2021/04/03 05:45:19;;;;;;;34.30;5.50;;;;;;;3.91;100.00;102722.16;3630216;31;20065;-62
2021/04/03 05:47:46;;;;;;;32.70;5.63;;;;;;;4.03;100.00;102712.91;3630294;31;20088;-63
2021/04/03 05:50:13;;;;;;;30.30;5.97;;;;;;;4.01;100.00;102722.75;3630156;31;20090;-62
2021/04/03 05:52:40;;;;;;;29.63;5.28;;;;;;;4.14;100.00;102731.25;3630888;31;20304;-62
2021/04/03 05:55:08;;;;;;;36.42;6.03;;;;;;;4.32;100.00;102729.78;3629599;39;20070;-62
2021/04/03 05:57:35;;;;;;;39.33;5.78;;;;;;;4.35;100.00;102735.00;3629883;31;20070;-61
2021/04/03 06:00:03;;;;;;;29.58;5.25;;;;;;;4.47;100.00;102745.28;3629748;39;20159;-61
2021/04/03 06:02:35;;;;;;;33.80;4.57;;;;;;;4.61;100.00;102735.94;3629725;31;20051;-62
2021/04/03 06:05:01;;;;;;;31.30;5.07;;;;;;;4.78;100.00;102738.91;3629968;31;20416;-62
2021/04/03 06:07:27;;;;;;;30.55;5.82;;;;;;;5.00;100.00;102748.84;3630521;31;20146;-62
2021/04/03 06:09:54;;;;;;;26.83;4.90;;;;;;;4.95;100.00;102743.69;3630453;31;20059;-62
2021/04/03 06:12:38;;;;;;;31.67;5.22;;;;;;;5.12;100.00;102759.09;3630636;31;20074;-62
2021/04/03 06:15:06;;;;;;;26.52;4.80;;;;;;;5.38;100.00;102754.63;3628200;31;20149;-59
2021/04/03 06:17:32;;;;;;;27.98;5.15;;;;;;;5.46;100.00;102760.56;3628154;32;20070;-61
2021/04/03 06:19:58;;;;;;;29.95;5.32;;;;;;;5.37;100.00;102759.09;3630192;31;20067;-61
2021/04/03 06:25:05;;;;;;;32.95;5.78;;;;;;;5.54;100.00;102766.50;3629138;34;20066;-60
2021/04/03 06:27:31;;;;;;;31.80;5.50;;;;;;;5.53;100.00;102764.75;3630285;32;20054;-61
2021/04/03 06:29:57;;;;;;;30.05;5.20;;;;;;;5.49;100.00;102768.47;3629793;31;20090;-61
2021/04/03 06:32:28;;;;;;;37.75;6.82;;;;;;;5.48;100.00;102765.84;3630306;31;20077;-61
2021/04/03 06:34:54;;;;;;;34.10;5.65;;;;;;;5.33;100.00;102772.59;3629407;39;20170;-60
2021/04/03 06:37:25;;;;;;;31.30;5.75;;;;;;;5.35;100.00;102776.13;3629506;31;20081;-62
2021/04/03 06:39:55;;;;;;;30.42;5.40;;;;;;;5.33;100.00;102773.50;3629544;39;20109;-62
2021/04/03 06:42:42;;;;;;;22.33;5.15;;;;;;;5.29;100.00;102779.88;3629818;31;20174;-62
2021/04/03 06:45:29;;;;;;;31.83;5.70;;;;;;;5.27;100.00;102784.41;3629537;32;20071;-62
2021/04/03 06:48:00;;;;;;;36.13;5.55;;;;;;;5.39;100.00;102791.09;3627132;32;20145;-62
2021/04/03 06:50:28;;;;;;;29.98;5.82;;;;;;;5.43;100.00;102798.06;3629817;31;20411;-64
2021/04/03 06:52:54;;;;;;;32.25;5.70;;;;;;;5.41;100.00;102789.25;3630326;32;20070;-63
2021/04/03 06:55:22;;;;;;;37.80;6.28;;;;;;;5.39;100.00;102801.78;3629293;32;20065;-62
2021/04/03 07:00:18;;;;;;;32.08;6.32;;;;;;;5.51;100.00;102806.69;3604941;32;20060;-62
2021/04/03 07:02:55;;;;;;;31.60;5.30;;;;;;;5.60;100.00;102806.34;3599277;32;20062;-61
2021/04/03 07:05:24;;;;;;;29.73;4.75;;;;;;;5.59;100.00;102804.63;3598603;32;20110;-62
2021/04/03 07:07:50;;;;;;;28.98;5.57;;;;;;;5.66;100.00;102807.06;3598736;32;20072;-61
2021/04/03 07:10:18;;;;;;;27.67;5.63;;;;;;;5.68;100.00;102811.38;3599224;32;20072;-62
2021/04/03 07:12:44;;;;;;;32.53;5.80;;;;;;;5.70;100.00;102814.03;3599525;32;20069;-62
2021/04/03 07:15:12;;;;;;;33.95;5.78;;;;;;;5.71;100.00;102813.09;3596810;32;20055;-61
2021/04/03 07:17:40;;;;;;;40.97;6.10;;;;;;;5.61;100.00;102818.78;3599251;32;20064;-61
2021/04/03 07:20:09;;;;;;;31.60;6.50;;;;;;;5.74;100.00;102818.31;3597932;32;20067;-63
2021/04/03 07:22:38;;;;;;;36.42;6.95;;;;;;;5.82;100.00;102818.06;3596713;32;20166;-61
2021/04/03 07:25:07;;;;;;;25.63;4.88;;;;;;;5.99;100.00;102815.63;3597494;32;20317;-61
2021/04/03 07:27:36;;;;;;;21.73;4.88;;;;;;;6.06;100.00;102821.63;3598553;32;20318;-62
2021/04/03 07:30:02;;;;;;;33.38;6.30;;;;;;;6.05;100.00;102825.22;3597095;32;20302;-62
2021/04/03 07:32:29;;;;;;;33.40;6.22;;;;;;;5.92;100.00;102825.66;3609711;32;20075;-61
2021/04/03 07:34:56;;;;;;;26.88;5.13;;;;;;;6.09;100.00;102827.72;3610942;31;20150;-64
2021/04/03 07:37:32;;;;;;;36.60;6.25;;;;;;;6.23;100.00;102834.38;3610743;32;20161;-61
2021/04/03 07:39:59;;;;;;;29.13;5.20;;;;;;;6.19;100.00;102828.25;3611303;32;20075;-62
2021/04/03 07:42:37;;;;;;;24.83;5.00;;;;;;;6.28;100.00;102838.56;3610109;32;20498;-62
2021/04/03 07:45:04;;;;;;;27.25;6.07;;;;;;;6.27;100.00;102831.50;3610796;31;20091;-62
2021/04/03 07:47:45;;;;;;;32.25;5.68;;;;;;;6.35;100.00;102841.91;3610214;39;20079;-62
2021/04/03 07:50:11;;;;;;;23.75;5.55;;;;;;;6.33;100.00;102841.09;3610663;31;20056;-61
2021/04/03 07:52:53;;;;;;;30.45;5.55;;;;;;;6.44;100.00;102843.34;3611051;32;20160;-61
2021/04/03 07:55:35;;;;;;;30.70;5.50;;;;;;;6.66;100.00;102843.38;3610066;32;20086;-62
2021/04/03 07:58:23;;;;;;;25.48;6.00;;;;;;;6.99;100.00;102845.56;3609739;32;20091;-62
2021/04/03 08:00:50;;;;;;;25.58;5.13;;;;;;;6.98;100.00;102841.19;3610209;31;20073;-62
2021/04/03 08:03:20;;;;;;;28.60;5.47;;;;;;;7.01;100.00;102849.09;3610367;32;20081;-62
2021/04/03 08:05:47;;;;;;;25.00;4.82;;;;;;;7.03;100.00;102852.56;3609179;32;20274;-63
2021/04/03 08:08:14;;;;;;;23.67;5.75;;;;;;;7.07;100.00;102848.81;3609599;32;20369;-63
2021/04/03 08:10:41;;;;;;;25.73;6.15;;;;;;;6.81;100.00;102853.44;3610737;39;20062;-61
2021/04/03 08:13:07;;;;;;;30.70;5.50;;;;;;;6.90;100.00;102862.88;3610487;32;20066;-61
2021/04/03 08:15:34;;;;;;;36.13;5.53;;;;;;;7.04;100.00;102856.09;3610970;32;20067;-62
2021/04/03 08:18:00;;;;;;;26.05;5.60;;;;;;;7.15;100.00;102868.09;3609774;31;20056;-62
2021/04/03 08:20:26;;;;;;;24.45;4.85;;;;;;;7.14;100.00;102868.16;3609737;32;20055;-61
2021/04/03 08:23:02;;;;;;;26.05;5.15;;;;;;;7.16;100.00;102875.22;3610884;39;20064;-62
2021/04/03 08:25:28;;;;;;;22.30;4.82;;;;;;;7.10;100.00;102862.06;3610961;32;20316;-61
2021/04/03 08:27:56;;;;;;;19.73;4.53;;;;;;;7.24;100.00;102855.25;3610840;31;20095;-63
2021/04/03 08:30:28;;;;;;;26.67;5.25;;;;;;;7.35;100.00;102861.91;3610889;32;20083;-62
2021/04/03 08:33:08;;;;;;;24.88;5.18;;;;;;;7.43;100.00;102874.09;3610742;31;20063;-63
2021/04/03 08:35:37;;;;;;;25.50;4.97;;;;;;;7.36;100.00;102860.09;3610060;32;20082;-62
2021/04/03 08:38:17;;;;;;;21.95;4.43;;;;;;;7.39;100.00;102875.16;3607761;32;20059;-62
2021/04/03 08:40:43;;;;;;;22.67;5.35;;;;;;;7.33;100.00;102868.25;3610318;32;20079;-64
2021/04/03 08:43:20;;;;;;;23.75;4.28;;;;;;;7.46;100.00;102882.88;3609972;31;20387;-63
2021/04/03 08:45:47;;;;;;;28.77;6.05;;;;;;;7.47;100.00;102873.03;3610346;32;20082;-63
2021/04/03 08:48:13;;;;;;;28.17;4.95;;;;;;;7.79;100.00;102878.78;3610371;32;20117;-62
2021/04/03 08:50:41;;;;;;;26.50;5.10;;;;;;;8.06;100.00;102874.84;3609804;32;20071;-62
2021/04/03 08:53:07;;;;;;;29.30;5.18;;;;;;;8.35;100.00;102872.66;3607229;32;20078;-63
2021/04/03 08:55:34;;;;;;;27.45;5.53;;;;;;;8.53;100.00;102875.44;3609849;31;20063;-63
2021/04/03 08:58:01;;;;;;;25.58;5.00;;;;;;;8.53;100.00;102876.31;3610029;31;20063;-61
2021/04/03 09:00:29;;;;;;;30.08;6.50;;;;;;;8.56;100.00;102869.94;3610082;31;20110;-63
2021/04/03 09:02:56;;;;;;;28.75;4.93;;;;;;;8.71;100.00;102871.84;3610164;32;20298;-63
2021/04/03 09:05:22;;;;;;;23.67;4.65;;;;;;;8.65;100.00;102879.34;3609312;32;20059;-64
2021/04/03 09:07:48;;;;;;;18.33;4.63;;;;;;;8.67;100.00;102872.97;3610863;31;20386;-63
2021/04/03 09:10:17;;;;;;;23.75;4.22;;;;;;;9.00;100.00;102868.72;3609598;32;20075;-64
2021/04/03 09:15:10;;;;;;;23.95;4.88;;;;;;;9.05;100.00;102872.00;3608830;32;20091;-63
2021/04/03 09:17:46;;;;;;;24.50;4.70;;;;;;;9.20;100.00;102873.06;3605089;32;20731;-64
2021/04/03 09:20:14;;;;;;;23.15;4.70;;;;;;;9.20;100.00;102870.38;3605191;31;20060;-62
2021/04/03 09:22:42;;;;;;;19.42;4.47;;;;;;;9.41;100.00;102868.44;3605061;31;20074;-64
2021/04/03 09:25:10;;;;;;;15.40;3.97;;;;;;;9.40;100.00;102866.69;3604649;31;20064;-64
2021/04/03 09:27:37;;;;;;;24.73;5.47;;;;;;;10.08;100.00;102869.34;3605372;32;20079;-63
2021/04/03 09:30:07;;;;;;;20.50;5.03;;;;;;;10.20;100.00;102870.50;3604697;31;20150;-63
2021/04/03 09:32:41;;;;;;;25.83;4.55;;;;;;;10.38;100.00;102878.53;3605565;32;20386;-64
2021/04/03 09:35:08;;;;;;;20.17;4.53;;;;;;;10.16;100.00;102877.88;3605007;31;20080;-63
2021/04/03 09:37:34;;;;;;;20.27;4.28;;;;;;;9.78;100.00;102878.13;3604133;32;20072;-63
2021/04/03 09:40:00;;;;;;;21.48;4.75;;;;;;;9.71;100.00;102876.69;3605228;31;20071;-63
2021/04/03 09:42:28;;;;;;;24.33;5.70;;;;;;;9.75;99.18;102870.22;3605509;31;20154;-65
2021/04/03 09:44:56;;;;;;;21.63;4.88;;;;;;;9.63;99.75;102878.94;3604837;32;20078;-63
2021/04/03 09:47:22;;;;;;;27.30;4.63;;;;;;;9.84;100.00;102876.06;3604954;32;20059;-63
2021/04/03 09:49:49;;;;;;;18.83;4.40;;;;;;;9.98;100.00;102879.75;3605211;31;20309;-63
2021/04/03 09:52:16;;;;;;;18.23;4.93;;;;;;;9.81;100.00;102882.47;3604465;32;20087;-63
2021/04/03 09:54:43;;;;;;;22.17;4.40;;;;;;;10.05;100.00;102885.66;3604542;39;20410;-63
2021/04/03 09:57:09;;;;;;;25.27;5.82;;;;;;;9.78;100.00;102891.56;3603723;31;20068;-62
2021/04/03 09:59:36;;;;;;;23.65;5.45;;;;;;;10.02;100.00;102893.03;3604380;31;20068;-63
2021/04/03 10:02:03;;;;;;;21.63;4.70;;;;;;;9.55;100.00;102897.28;3604808;31;20090;-63
2021/04/03 10:04:30;;;;;;;24.35;5.05;;;;;;;10.09;100.00;102907.91;3604538;31;20080;-63
2021/04/03 10:06:58;;;;;;;22.33;4.00;;;;;;;10.26;100.00;102902.47;3605271;31;20118;-63
2021/04/03 10:09:24;;;;;;;18.63;4.35;;;;;;;10.41;100.00;102899.91;3604395;31;20083;-63
2021/04/03 10:11:54;;;;;;;23.83;4.88;;;;;;;10.42;100.00;102901.66;3605128;31;20489;-64
2021/04/03 10:14:21;;;;;;;24.85;5.18;;;;;;;10.23;100.00;102904.44;3603746;32;20071;-65
2021/04/03 10:16:47;;;;;;;24.30;5.20;;;;;;;9.73;100.00;102899.00;3604553;31;20060;-63
2021/04/03 10:19:13;;;;;;;20.30;4.35;;;;;;;9.53;100.00;102896.50;3604578;32;20072;-63
2021/04/03 10:21:39;;;;;;;20.58;4.35;;;;;;;9.65;100.00;102895.84;3604508;31;20095;-63
2021/04/03 10:24:07;;;;;;;22.77;4.85;;;;;;;9.74;100.00;102895.34;3604583;31;20079;-64
2021/04/03 10:26:33;;;;;;;19.37;4.43;;;;;;;9.95;100.00;102892.47;3604019;32;20083;-64
2021/04/03 10:28:59;;;;;;;22.02;5.47;;;;;;;10.54;100.00;102887.53;3604478;32;20059;-63
2021/04/03 10:31:25;;;;;;;25.25;4.43;;;;;;;10.44;99.17;102892.53;3603788;31;20144;-63
2021/04/03 10:33:51;;;;;;;23.20;4.95;;;;;;;10.29;99.87;102901.41;3604343;32;20412;-63
2021/04/03 10:36:17;;;;;;;25.10;5.18;;;;;;;10.17;100.00;102892.19;3603894;32;20072;-64
2021/04/03 10:38:44;;;;;;;22.13;4.53;;;;;;;10.07;100.00;102899.03;3604095;32;20393;-63
2021/04/03 10:41:12;;;;;;;25.25;4.45;;;;;;;9.75;100.00;102891.72;3604008;32;20060;-63
2021/04/03 10:43:38;;;;;;;17.55;4.72;;;;;;;9.76;100.00;102893.47;3604377;32;20165;-63
2021/04/03 10:46:06;;;;;;;19.58;4.65;;;;;;;9.57;100.00;102901.63;3604017;32;20075;-63
2021/04/03 10:48:32;;;;;;;18.85;4.40;;;;;;;9.98;100.00;102905.75;3604413;32;20067;-63
2021/04/03 10:50:58;;;;;;;22.92;5.05;;;;;;;10.40;100.00;102899.03;3604029;32;20304;-63
2021/04/03 10:53:24;;;;;;;24.10;4.97;;;;;;;10.35;97.23;102895.75;3604333;32;20086;-64
2021/04/03 10:55:50;;;;;;;27.02;4.95;;;;;;;9.91;96.75;102896.28;3603807;32;20068;-64
2021/04/03 10:58:17;;;;;;;18.85;4.47;;;;;;;10.57;100.00;102895.44;3604000;32;20106;-64
2021/04/03 11:00:42;;;;;;;20.50;4.30;;;;;;;10.72;93.60;102899.06;3604191;32;20094;-63
2021/04/03 11:03:08;;;;;;;14.30;3.78;;;;;;;10.54;94.85;102897.41;3603740;32;20072;-64
2021/04/03 11:05:34;;;;;;;19.08;4.35;;;;;;;10.42;93.91;102888.19;3603958;32;20074;-63
2021/04/03 11:08:00;;;;;;;17.98;4.35;;;;;;;10.18;95.53;102897.47;3604003;32;20078;-63
2021/04/03 11:10:26;;;;;;;19.58;4.55;;;;;;;10.15;96.37;102886.88;3614711;31;20469;-63
2021/04/03 11:12:52;;;;;;;15.38;4.15;;;;;;;10.56;94.71;102884.75;3614121;31;20052;-64
2021/04/03 11:15:19;;;;;;;21.02;3.97;;;;;;;11.03;90.30;102898.16;3622888;31;20163;-62
2021/04/03 11:17:45;;;;;;;17.27;4.05;;;;;;;10.81;91.20;102885.06;3623938;31;20306;-63
2021/04/03 11:20:13;;;;;;;17.00;4.15;;;;;;;10.68;89.76;102884.03;3623550;31;20074;-63
2021/04/03 11:22:40;;;;;;;21.05;4.70;;;;;;;10.67;90.82;102883.19;3623906;31;20152;-64
2021/04/03 11:27:33;;;;;;;16.65;3.88;;;;;;;11.51;85.13;102873.81;3622594;32;20059;-63
2021/04/03 11:30:12;;;;;;;15.00;3.95;;;;;;;10.74;87.18;102878.28;3619341;32;20317;-63
2021/04/03 11:32:39;;;;;;;24.05;4.32;;;;;;;10.04;90.03;102873.19;3619967;32;20393;-63